Time;durP1;ratioP1;P1;durP2;ratioP2;P2;SDS_P1;SDS_P2;PMS_P1;PMS_P2;Temp;Humidity;BMP_temperature;BMP_pressure;BME280_temperature;BME280_humidity;BME280_pressure;Samples;Min_cycle;Max_cycle;Signal;HPM_P1;HPM_P2
2020/12/16 00:00:48;;;;;;;22.10;11.20;;;7.20;91.30;;;;;;4993889;28;20022;-87
2020/12/16 00:03:14;;;;;;;20.43;11.80;;;7.20;91.30;;;;;;4994380;28;20034;-87
2020/12/16 00:05:39;;;;;;;23.70;12.83;;;7.30;90.80;;;;;;4994528;28;20080;-87
2020/12/16 00:08:05;;;;;;;21.17;12.73;;;7.20;90.50;;;;;;4994424;28;20109;-88
2020/12/16 00:10:31;;;;;;;17.93;11.13;;;7.20;90.60;;;;;;4993953;28;20418;-87
2020/12/16 00:12:56;;;;;;;17.37;10.83;;;7.10;90.50;;;;;;5040543;23;20048;-84
2020/12/16 00:15:22;;;;;;;16.53;10.70;;;7.10;90.60;;;;;;5056235;28;20029;-84
2020/12/16 00:17:49;;;;;;;16.17;9.97;;;7.00;90.60;;;;;;5056180;28;20074;-84
2020/12/16 00:20:15;;;;;;;13.97;9.07;;;6.90;90.70;;;;;;5055811;28;20028;-85
2020/12/16 00:22:41;;;;;;;15.40;9.20;;;6.90;90.90;;;;;;5056058;28;20025;-84
2020/12/16 00:25:08;;;;;;;15.10;9.20;;;6.80;91.00;;;;;;5055987;28;20469;-84
2020/12/16 00:27:34;;;;;;;12.97;8.90;;;6.80;90.90;;;;;;5055106;28;20053;-84
2020/12/16 00:30:00;;;;;;;15.70;8.50;;;6.80;91.20;;;;;;5050793;28;20029;-84
2020/12/16 00:32:26;;;;;;;12.30;7.87;;;6.70;91.50;;;;;;5052164;28;20523;-84
2020/12/16 00:34:52;;;;;;;13.53;7.97;;;6.80;91.40;;;;;;5055008;28;20029;-84
2020/12/16 00:37:18;;;;;;;11.80;7.83;;;6.80;91.40;;;;;;5056724;28;20029;-83
2020/12/16 00:39:43;;;;;;;13.27;7.23;;;6.70;91.30;;;;;;5055759;28;20021;-83
2020/12/16 00:42:09;;;;;;;11.73;7.07;;;6.70;91.40;;;;;;5056393;28;20029;-84
2020/12/16 00:44:35;;;;;;;10.93;6.70;;;6.80;91.20;;;;;;5057068;28;20540;-83
2020/12/16 00:47:01;;;;;;;11.37;6.93;;;6.70;91.10;;;;;;5056701;28;20111;-83
2020/12/16 00:49:26;;;;;;;10.60;7.23;;;6.70;91.30;;;;;;5054458;28;20028;-83
2020/12/16 00:51:53;;;;;;;11.60;6.90;;;6.80;91.20;;;;;;5054938;28;20040;-83
2020/12/16 00:54:18;;;;;;;11.10;7.30;;;6.80;91.00;;;;;;5056413;28;20048;-84
2020/12/16 00:56:44;;;;;;;10.13;6.77;;;6.70;90.90;;;;;;5055115;28;20171;-84
2020/12/16 00:59:10;;;;;;;10.90;6.87;;;6.70;91.10;;;;;;5055055;28;20401;-83
2020/12/16 01:01:35;;;;;;;11.23;6.40;;;6.70;90.90;;;;;;5056403;28;20021;-83
2020/12/16 01:04:01;;;;;;;12.20;6.57;;;6.70;91.00;;;;;;5056301;28;20028;-84
2020/12/16 01:06:26;;;;;;;11.20;6.23;;;6.70;90.90;;;;;;5056159;28;20039;-83
2020/12/16 01:08:52;;;;;;;10.80;6.40;;;6.70;90.80;;;;;;5054458;28;20029;-84
2020/12/16 01:11:18;;;;;;;10.63;6.47;;;6.60;90.60;;;;;;5056141;28;20032;-84
2020/12/16 01:13:43;;;;;;;10.67;5.87;;;6.60;90.60;;;;;;5055680;28;20060;-84
2020/12/16 01:16:09;;;;;;;10.27;6.27;;;6.50;90.80;;;;;;5055848;28;20032;-84
2020/12/16 01:18:36;;;;;;;10.40;6.13;;;6.60;90.70;;;;;;5055773;28;20024;-83
2020/12/16 01:21:01;;;;;;;11.10;6.33;;;6.60;90.60;;;;;;5055892;28;20032;-83
2020/12/16 01:23:27;;;;;;;10.20;6.37;;;6.60;90.70;;;;;;5055486;28;20025;-84
2020/12/16 01:25:53;;;;;;;11.37;6.37;;;6.50;90.70;;;;;;5054202;28;20394;-85
2020/12/16 01:28:19;;;;;;;10.27;6.20;;;6.50;90.90;;;;;;5055483;28;20029;-84
2020/12/16 01:30:44;;;;;;;10.67;5.70;;;6.50;90.90;;;;;;5055469;28;20043;-84
2020/12/16 01:33:10;;;;;;;11.07;6.10;;;6.50;91.00;;;;;;5055225;28;20037;-84
2020/12/16 01:35:35;;;;;;;9.03;5.90;;;6.50;91.10;;;;;;5055724;28;20043;-84
2020/12/16 01:38:01;;;;;;;10.77;5.67;;;6.50;91.00;;;;;;5055878;28;20013;-84
2020/12/16 01:40:27;;;;;;;9.37;5.73;;;6.50;91.20;;;;;;5055580;28;20017;-83
2020/12/16 01:42:52;;;;;;;10.60;5.87;;;6.50;91.20;;;;;;5054750;28;20017;-83
2020/12/16 01:45:23;;;;;;;8.03;5.67;;;6.60;91.30;;;;;;5054127;28;20036;-84
2020/12/16 01:47:49;;;;;;;10.23;5.93;;;6.60;91.10;;;;;;5054959;28;20104;-84
2020/12/16 01:50:15;;;;;;;10.00;5.90;;;6.60;91.40;;;;;;5054547;28;20548;-83
2020/12/16 01:52:41;;;;;;;12.33;6.23;;;6.60;91.40;;;;;;5054607;28;20082;-83
2020/12/16 01:55:10;;;;;;;13.47;6.60;;;6.70;92.00;;;;;;5054705;28;20105;-83
2020/12/16 01:57:38;;;;;;;9.38;5.85;;;6.90;92.40;;;;;;5054964;28;20101;-83
2020/12/16 02:00:09;;;;;;;10.03;6.50;;;6.90;91.90;;;;;;5054340;28;20497;-84
2020/12/16 02:02:49;;;;;;;11.97;6.30;;;7.00;92.20;;;;;;5054979;28;20027;-83
2020/12/16 02:05:17;;;;;;;8.13;5.93;;;7.00;92.00;;;;;;5054560;28;20519;-84
2020/12/16 02:07:45;;;;;;;8.40;5.87;;;7.10;92.20;;;;;;5054581;28;20392;-84
2020/12/16 02:10:11;;;;;;;10.27;6.70;;;7.10;92.40;;;;;;5052276;28;20271;-83
2020/12/16 02:12:37;;;;;;;9.73;6.57;;;7.10;92.00;;;;;;5053770;28;20423;-84
2020/12/16 02:15:04;;;;;;;10.43;6.50;;;7.10;92.30;;;;;;5053939;28;20051;-84
2020/12/16 02:17:30;;;;;;;8.37;6.33;;;7.10;92.20;;;;;;5052950;28;20432;-84
2020/12/16 02:19:58;;;;;;;11.70;6.87;;;7.20;92.40;;;;;;5052195;28;20021;-84
2020/12/16 02:22:25;;;;;;;9.87;6.43;;;7.20;92.20;;;;;;5052796;28;20031;-84
2020/12/16 02:24:57;;;;;;;9.93;6.30;;;7.30;92.00;;;;;;5053858;28;20044;-84
2020/12/16 02:27:23;;;;;;;9.13;5.93;;;7.30;91.80;;;;;;5054090;28;20473;-83
2020/12/16 02:29:49;;;;;;;10.70;6.33;;;7.30;91.70;;;;;;5053289;28;20033;-84
2020/12/16 02:32:14;;;;;;;10.70;6.47;;;7.30;91.80;;;;;;5053758;28;20059;-84
2020/12/16 02:34:41;;;;;;;10.43;6.80;;;7.30;92.00;;;;;;5053511;28;20120;-84
2020/12/16 02:37:07;;;;;;;11.07;6.47;;;7.20;92.00;;;;;;5053725;28;20029;-83
2020/12/16 02:39:32;;;;;;;9.73;6.33;;;7.30;92.00;;;;;;5051896;28;20024;-83
2020/12/16 02:42:00;;;;;;;11.47;7.23;;;7.30;92.50;;;;;;5052154;28;20488;-84
2020/12/16 02:44:25;;;;;;;9.50;6.73;;;7.30;92.40;;;;;;5052100;28;20389;-84
2020/12/16 02:46:51;;;;;;;10.40;6.93;;;7.20;92.10;;;;;;5053766;28;20056;-83
2020/12/16 02:49:17;;;;;;;11.77;7.43;;;7.20;92.00;;;;;;5053428;28;20033;-84
2020/12/16 02:51:42;;;;;;;9.50;7.10;;;7.10;92.40;;;;;;5053716;28;20378;-83
2020/12/16 02:54:08;;;;;;;9.03;6.20;;;7.10;92.40;;;;;;5052421;28;20021;-83
2020/12/16 02:56:33;;;;;;;10.20;6.77;;;7.10;92.20;;;;;;5053660;28;20032;-84
2020/12/16 02:58:59;;;;;;;10.93;7.23;;;7.00;92.20;;;;;;5052943;28;20040;-84
2020/12/16 03:01:24;;;;;;;10.07;7.03;;;7.00;92.30;;;;;;5052018;28;20334;-84
2020/12/16 03:03:50;;;;;;;10.10;6.80;;;7.00;92.70;;;;;;5053664;28;20086;-84
2020/12/16 03:06:16;;;;;;;11.40;7.20;;;6.90;92.20;;;;;;5052170;28;20029;-83
2020/12/16 03:08:42;;;;;;;9.07;6.93;;;6.90;92.20;;;;;;5052293;28;20021;-83
2020/12/16 03:11:08;;;;;;;12.43;6.93;;;6.90;92.20;;;;;;5052641;28;20055;-84
2020/12/16 03:13:33;;;;;;;10.23;6.43;;;6.90;91.90;;;;;;5053110;28;20032;-84
2020/12/16 03:15:59;;;;;;;13.10;7.03;;;6.80;92.00;;;;;;5052090;28;20036;-84
2020/12/16 03:18:24;;;;;;;10.07;6.90;;;6.90;92.20;;;;;;5052063;28;20032;-84
2020/12/16 03:20:50;;;;;;;10.77;6.93;;;6.80;92.20;;;;;;5052598;28;20492;-84
2020/12/16 03:23:16;;;;;;;11.47;6.40;;;6.90;92.10;;;;;;5051583;28;20025;-84
2020/12/16 03:25:41;;;;;;;11.60;6.60;;;6.90;92.10;;;;;;5053043;28;20405;-84
2020/12/16 03:28:07;;;;;;;9.47;6.60;;;6.90;91.50;;;;;;5052664;28;20025;-84
2020/12/16 03:30:32;;;;;;;10.33;6.70;;;7.00;91.50;;;;;;5052439;28;20100;-84
2020/12/16 03:32:58;;;;;;;10.47;6.40;;;6.90;91.40;;;;;;5051255;28;20036;-84
2020/12/16 03:35:24;;;;;;;12.47;7.57;;;6.90;91.60;;;;;;5052939;28;20033;-84
2020/12/16 03:37:49;;;;;;;11.07;7.17;;;7.00;92.20;;;;;;5051856;28;20032;-84
2020/12/16 03:40:15;;;;;;;12.93;8.20;;;7.00;92.10;;;;;;5050636;28;20028;-85
2020/12/16 03:42:41;;;;;;;9.60;6.53;;;7.00;92.20;;;;;;5050036;28;20113;-85
2020/12/16 03:45:07;;;;;;;10.47;6.67;;;7.00;92.00;;;;;;5052267;28;20066;-84
2020/12/16 03:47:32;;;;;;;10.10;6.57;;;6.90;92.00;;;;;;5051263;28;20424;-84
2020/12/16 03:49:58;;;;;;;10.63;7.10;;;6.90;92.00;;;;;;5052158;28;20047;-84
2020/12/16 03:52:23;;;;;;;9.70;6.47;;;6.90;91.70;;;;;;5052635;28;20036;-84
2020/12/16 03:54:49;;;;;;;9.37;6.93;;;6.90;91.80;;;;;;5052285;28;20063;-84
2020/12/16 03:57:14;;;;;;;9.67;6.60;;;6.90;91.80;;;;;;5050960;28;20037;-85
2020/12/16 03:59:40;;;;;;;10.87;7.07;;;6.90;91.90;;;;;;5051969;28;20024;-84
2020/12/16 04:02:06;;;;;;;11.70;7.07;;;6.90;91.90;;;;;;5052481;28;20157;-84
2020/12/16 04:04:32;;;;;;;9.13;6.70;;;6.90;91.90;;;;;;5052952;28;20022;-84
2020/12/16 04:06:57;;;;;;;10.87;7.20;;;6.90;92.10;;;;;;5051250;28;20587;-84
2020/12/16 04:09:25;;;;;;;10.60;7.43;;;6.90;91.90;;;;;;5053481;28;20021;-85
2020/12/16 04:11:53;;;;;;;11.00;7.27;;;7.00;91.70;;;;;;5056255;28;20028;-84
2020/12/16 04:14:18;;;;;;;9.77;7.40;;;7.00;91.60;;;;;;5054446;28;20029;-84
2020/12/16 04:16:44;;;;;;;11.40;7.30;;;7.00;91.70;;;;;;5054837;28;20035;-84
2020/12/16 04:19:09;;;;;;;11.87;8.20;;;6.90;91.60;;;;;;5055930;28;20028;-85
2020/12/16 04:21:35;;;;;;;11.93;7.77;;;6.90;91.60;;;;;;5055868;28;20097;-84
2020/12/16 04:24:01;;;;;;;10.10;6.80;;;6.90;91.70;;;;;;5055759;28;20017;-84
2020/12/16 04:26:28;;;;;;;10.07;6.93;;;6.80;91.90;;;;;;5056101;28;20033;-84
2020/12/16 04:28:53;;;;;;;10.97;7.47;;;6.80;91.60;;;;;;5053926;28;20025;-85
2020/12/16 04:31:19;;;;;;;10.10;6.80;;;6.70;91.50;;;;;;5055882;28;20444;-84
2020/12/16 04:33:45;;;;;;;11.20;6.63;;;6.60;91.40;;;;;;5054221;28;20029;-84
2020/12/16 04:36:11;;;;;;;10.63;7.00;;;6.60;91.50;;;;;;5055734;28;20052;-84
2020/12/16 04:38:37;;;;;;;11.33;6.57;;;6.50;91.40;;;;;;5055827;28;20358;-84
2020/12/16 04:41:07;;;;;;;11.43;6.70;;;6.40;91.40;;;;;;5054177;28;20032;-84
2020/12/16 04:43:39;;;;;;;10.87;6.60;;;6.50;91.60;;;;;;5055845;28;20016;-84
2020/12/16 04:46:04;;;;;;;12.10;6.90;;;6.50;91.50;;;;;;5054290;28;20060;-84
2020/12/16 04:48:30;;;;;;;10.30;6.53;;;6.50;91.50;;;;;;5055668;28;20021;-84
2020/12/16 04:50:56;;;;;;;10.37;7.10;;;6.60;91.20;;;;;;5053708;28;20519;-84
2020/12/16 04:53:24;;;;;;;8.87;6.40;;;6.60;91.10;;;;;;5054489;28;20497;-84
2020/12/16 04:55:51;;;;;;;10.43;6.83;;;6.70;90.80;;;;;;5055219;28;20473;-83
2020/12/16 04:58:17;;;;;;;9.40;6.83;;;6.60;90.50;;;;;;5055675;28;20029;-84
2020/12/16 05:00:42;;;;;;;11.13;6.97;;;6.60;90.90;;;;;;5053598;28;20104;-84
2020/12/16 05:03:10;;;;;;;12.07;7.40;;;6.70;91.00;;;;;;5055331;28;20435;-85
2020/12/16 05:05:36;;;;;;;11.37;7.13;;;6.70;91.20;;;;;;5055322;28;20025;-84
2020/12/16 05:08:13;;;;;;;14.37;7.80;;;6.70;91.10;;;;;;5054934;28;20025;-84
2020/12/16 05:10:41;;;;;;;11.67;7.53;;;6.70;91.40;;;;;;5054665;28;20505;-84
2020/12/16 05:13:11;;;;;;;12.30;7.73;;;6.80;91.60;;;;;;5053700;28;20035;-84
2020/12/16 05:15:39;;;;;;;11.60;7.57;;;6.70;91.60;;;;;;5053606;28;20033;-84
2020/12/16 05:18:15;;;;;;;11.53;7.37;;;6.70;92.00;;;;;;5054842;28;20108;-84
2020/12/16 05:20:45;;;;;;;11.30;7.70;;;6.60;92.10;;;;;;5054215;28;20513;-84
2020/12/16 05:23:11;;;;;;;12.87;7.60;;;6.60;91.80;;;;;;5054766;28;20028;-84
2020/12/16 05:25:38;;;;;;;11.20;7.80;;;6.60;92.00;;;;;;5054948;28;20099;-85
2020/12/16 05:28:04;;;;;;;12.03;7.80;;;6.60;92.00;;;;;;5053374;28;20079;-84
2020/12/16 05:30:32;;;;;;;14.37;7.90;;;6.60;91.90;;;;;;5053037;28;20052;-84
2020/12/16 05:33:01;;;;;;;12.77;8.07;;;6.60;91.80;;;;;;5054171;28;20473;-84
2020/12/16 05:35:36;;;;;;;13.97;7.67;;;6.60;91.60;;;;;;5054677;28;20025;-84
2020/12/16 05:38:10;;;;;;;14.13;8.27;;;6.60;91.70;;;;;;5054675;28;20029;-84
2020/12/16 05:40:38;;;;;;;11.07;7.60;;;6.50;91.70;;;;;;5052809;28;20025;-84
2020/12/16 05:43:05;;;;;;;15.30;8.13;;;6.40;91.70;;;;;;5054657;28;20116;-84
2020/12/16 05:45:31;;;;;;;11.83;7.60;;;6.40;91.90;;;;;;5053415;28;20535;-83
2020/12/16 05:48:11;;;;;;;14.43;8.40;;;6.50;91.70;;;;;;5054381;28;20037;-84
2020/12/16 05:50:52;;;;;;;14.10;9.00;;;6.50;91.70;;;;;;5054167;28;20032;-85
2020/12/16 05:53:23;;;;;;;15.20;9.33;;;6.50;91.50;;;;;;5054817;28;20035;-84
2020/12/16 05:56:09;;;;;;;14.00;8.57;;;6.50;91.50;;;;;;5052995;28;20115;-84
2020/12/16 05:58:35;;;;;;;15.60;8.60;;;6.40;91.60;;;;;;5053988;28;20047;-84
2020/12/16 06:01:06;;;;;;;12.60;8.07;;;6.40;91.40;;;;;;5053093;28;20033;-84
2020/12/16 06:03:37;;;;;;;13.03;8.90;;;6.40;91.40;;;;;;5054442;28;20494;-84
2020/12/16 06:06:07;;;;;;;14.00;8.87;;;6.40;91.40;;;;;;5053505;28;20059;-84
2020/12/16 06:08:35;;;;;;;14.07;8.43;;;6.40;91.60;;;;;;5055248;28;20029;-85
2020/12/16 06:11:03;;;;;;;13.33;8.73;;;6.30;91.60;;;;;;5054006;28;20033;-84
2020/12/16 06:13:28;;;;;;;14.13;8.83;;;6.30;91.50;;;;;;5054599;28;20060;-83
2020/12/16 06:16:07;;;;;;;13.37;8.60;;;6.20;91.50;;;;;;5054365;28;20477;-83
2020/12/16 06:18:37;;;;;;;12.70;8.55;;;6.20;91.50;;;;;;5052566;28;20603;-82
2020/12/16 06:21:03;;;;;;;;;;;6.20;91.50;;;;;;5052245;28;20486;-83
2020/12/16 06:23:39;;;;;;;16.53;9.33;;;6.20;91.60;;;;;;5053750;28;19912;-83
2020/12/16 06:26:12;;;;;;;13.80;8.80;;;6.30;91.50;;;;;;5054087;28;20090;-83
2020/12/16 06:28:38;;;;;;;15.83;9.37;;;6.30;91.40;;;;;;5053795;28;20021;-83
2020/12/16 06:31:21;;;;;;;15.70;9.43;;;6.40;91.60;;;;;;5052209;28;20051;-83
2020/12/16 06:34:02;;;;;;;13.40;8.67;;;6.40;91.50;;;;;;5053789;28;20374;-83
2020/12/16 06:36:31;;;;;;;14.33;9.90;;;6.40;91.50;;;;;;5054007;28;20028;-83
2020/12/16 06:38:57;;;;;;;14.68;8.98;;;6.50;91.70;;;;;;5053464;28;20025;-83
2020/12/16 06:41:26;;;;;;;15.07;9.00;;;6.50;91.80;;;;;;5052609;28;20108;-83
2020/12/16 06:43:56;;;;;;;11.77;7.28;;;6.50;91.70;;;;;;5054377;28;20106;-83
2020/12/16 06:46:30;;;;;;;14.83;9.90;;;6.50;91.70;;;;;;5054471;28;20108;-83
2020/12/16 06:48:57;;;;;;;14.90;8.97;;;6.50;91.80;;;;;;5054222;28;20417;-82
2020/12/16 06:51:25;;;;;;;15.27;9.40;;;6.50;91.70;;;;;;5054220;28;20044;-82
2020/12/16 06:54:03;;;;;;;17.47;9.97;;;6.50;91.80;;;;;;5053706;28;20053;-83
2020/12/16 06:56:29;;;;;;;13.70;9.23;;;6.50;91.70;;;;;;5054136;28;20107;-82
2020/12/16 06:58:55;;;;;;;16.33;10.17;;;6.50;91.70;;;;;;5052907;28;20115;-83
2020/12/16 07:01:22;;;;;;;15.73;9.57;;;6.50;91.60;;;;;;5053679;28;20409;-83
2020/12/16 07:03:48;;;;;;;15.73;9.83;;;6.50;91.80;;;;;;5054941;28;20046;-83
2020/12/16 07:06:29;;;;;;;17.33;9.67;;;6.50;92.20;;;;;;5053269;28;20029;-83
2020/12/16 07:09:13;;;;;;;16.33;9.70;;;6.50;91.80;;;;;;5052248;28;20036;-83
2020/12/16 07:11:43;;;;;;;15.03;9.50;;;6.40;91.60;;;;;;5053972;28;20061;-83
2020/12/16 07:14:13;;;;;;;15.50;9.47;;;6.40;91.50;;;;;;5052897;28;20058;-82
2020/12/16 07:16:39;;;;;;;15.87;9.67;;;6.40;91.60;;;;;;5053700;28;20123;-83
2020/12/16 07:19:05;;;;;;;20.80;11.10;;;6.40;91.60;;;;;;5053102;28;20082;-83
2020/12/16 07:21:31;;;;;;;15.60;9.63;;;6.40;91.80;;;;;;5054388;28;20522;-82
2020/12/16 07:24:07;;;;;;;17.07;9.33;;;6.30;91.50;;;;;;5055436;28;20100;-83
2020/12/16 07:26:43;;;;;;;17.63;10.07;;;6.30;91.80;;;;;;5055351;28;20223;-83
2020/12/16 07:29:24;;;;;;;17.10;9.80;;;6.40;91.60;;;;;;5052896;28;20035;-84
2020/12/16 07:32:11;;;;;;;20.87;11.43;;;6.40;91.70;;;;;;5054429;28;20029;-83
2020/12/16 07:34:47;;;;;;;19.90;10.70;;;6.40;92.00;;;;;;5055336;28;20025;-83
2020/12/16 07:37:14;;;;;;;19.03;10.57;;;6.40;92.20;;;;;;5052825;28;20076;-83
2020/12/16 07:39:57;;;;;;;18.40;11.27;;;6.40;92.10;;;;;;5052618;28;20021;-83
2020/12/16 07:42:30;;;;;;;20.23;11.00;;;6.50;92.10;;;;;;5053483;28;20017;-82
2020/12/16 07:44:57;;;;;;;17.47;10.63;;;6.50;92.50;;;;;;5056031;28;20032;-83
2020/12/16 07:47:25;;;;;;;20.43;11.27;;;6.60;92.70;;;;;;5058432;28;20029;-83
2020/12/16 07:49:51;;;;;;;18.77;10.73;;;6.70;93.20;;;;;;5059293;28;20051;-83
2020/12/16 07:52:21;;;;;;;16.80;10.60;;;6.70;93.00;;;;;;5059556;28;20029;-83
2020/12/16 07:54:47;;;;;;;19.17;10.60;;;6.80;92.90;;;;;;5058397;28;20029;-83
2020/12/16 07:57:12;;;;;;;15.60;9.57;;;6.90;92.60;;;;;;5058357;28;20500;-83
2020/12/16 07:59:38;;;;;;;16.17;9.63;;;7.00;92.30;;;;;;5058397;28;20041;-83
2020/12/16 08:02:13;;;;;;;17.37;9.73;;;7.00;92.30;;;;;;5058373;28;20104;-84
2020/12/16 08:04:41;;;;;;;18.23;10.63;;;7.00;92.40;;;;;;5056505;28;20037;-83
2020/12/16 08:07:18;;;;;;;20.17;11.43;;;7.10;92.60;;;;;;5056725;28;20512;-83
2020/12/16 08:09:54;;;;;;;17.27;10.10;;;7.00;92.60;;;;;;5056409;28;20025;-83
2020/12/16 08:12:24;;;;;;;15.33;9.93;;;7.10;92.60;;;;;;5058180;28;20474;-83
2020/12/16 08:15:02;;;;;;;16.77;10.00;;;7.10;92.40;;;;;;5056368;28;20057;-82
2020/12/16 08:17:28;;;;;;;18.27;10.73;;;7.10;92.30;;;;;;5057613;28;20100;-83
2020/12/16 08:20:11;;;;;;;17.43;11.20;;;7.10;92.30;;;;;;5057340;28;20022;-83
2020/12/16 08:22:37;;;;;;;20.57;11.17;;;7.10;92.50;;;;;;5057772;28;20386;-83
2020/12/16 08:25:08;;;;;;;16.93;10.13;;;7.00;92.60;;;;;;5058037;28;20044;-83
2020/12/16 08:27:35;;;;;;;16.70;10.70;;;7.00;92.90;;;;;;5056613;28;20033;-83
2020/12/16 08:30:03;;;;;;;17.37;10.40;;;7.00;93.00;;;;;;5057560;28;20025;-83
2020/12/16 08:32:32;;;;;;;17.47;11.17;;;7.00;93.10;;;;;;5059097;28;20474;-83
2020/12/16 08:35:02;;;;;;;16.90;10.37;;;7.00;93.10;;;;;;5058839;28;20032;-83
2020/12/16 08:37:29;;;;;;;18.63;10.37;;;7.00;93.30;;;;;;5058764;28;20025;-83
2020/12/16 08:39:55;;;;;;;17.53;10.87;;;7.00;93.30;;;;;;5056656;28;20041;-83
2020/12/16 08:42:24;;;;;;;18.03;11.00;;;7.10;93.40;;;;;;5058695;28;20041;-83
2020/12/16 08:44:51;;;;;;;19.70;11.88;;;7.10;93.40;;;;;;5058818;28;20040;-83
2020/12/16 08:47:26;;;;;;;21.67;12.50;;;7.10;93.50;;;;;;5058547;28;20037;-83
2020/12/16 08:49:53;;;;;;;21.73;12.07;;;7.10;93.70;;;;;;5057483;28;20104;-83
2020/12/16 08:52:18;;;;;;;19.97;12.53;;;7.20;93.60;;;;;;5058176;28;20024;-83
2020/12/16 08:54:44;;;;;;;19.50;11.50;;;7.20;93.70;;;;;;5057809;28;20431;-83
2020/12/16 08:57:11;;;;;;;20.40;12.27;;;7.20;93.70;;;;;;5062151;28;20021;-83
2020/12/16 08:59:37;;;;;;;20.57;12.40;;;7.30;93.80;;;;;;5060290;28;20021;-84
2020/12/16 09:02:03;;;;;;;18.43;11.70;;;7.30;93.80;;;;;;5057899;28;20074;-84
2020/12/16 09:04:30;;;;;;;19.70;11.57;;;7.40;93.90;;;;;;5058937;28;20025;-83
2020/12/16 09:07:22;;;;;;;19.47;11.97;;;7.40;93.80;;;;;;5056978;28;20111;-83
2020/12/16 09:09:47;;;;;;;22.13;12.97;;;7.40;93.80;;;;;;5056847;28;20112;-84
2020/12/16 09:12:15;;;;;;;20.87;12.50;;;7.50;93.90;;;;;;5058544;28;20056;-83
2020/12/16 09:15:15;;;;;;;24.83;13.30;;;7.50;94.10;;;;;;5057708;28;20033;-84
2020/12/16 09:17:40;;;;;;;18.48;11.32;;;7.50;93.80;;;;;;5058508;28;20096;-83
2020/12/16 09:20:12;;;;;;;18.20;11.10;;;7.60;94.00;;;;;;5055931;28;20505;-83
2020/12/16 09:22:38;;;;;;;16.23;10.33;;;7.60;93.80;;;;;;5058141;28;20078;-83
2020/12/16 09:25:03;;;;;;;17.87;10.73;;;7.60;93.90;;;;;;5057964;28;20033;-83
2020/12/16 09:27:29;;;;;;;16.63;10.60;;;7.70;94.20;;;;;;5058302;28;20035;-84
2020/12/16 09:29:55;;;;;;;15.17;9.33;;;7.70;94.40;;;;;;5056578;28;20041;-83
2020/12/16 09:32:25;;;;;;;16.00;9.53;;;7.70;94.10;;;;;;5056790;28;20036;-83
2020/12/16 09:34:53;;;;;;;15.50;8.77;;;7.80;93.90;;;;;;5059497;28;20036;-84
2020/12/16 09:37:33;;;;;;;14.67;9.17;;;7.80;93.90;;;;;;5057550;28;20461;-84
2020/12/16 09:40:17;;;;;;;15.93;10.30;;;7.80;94.00;;;;;;5058453;28;20154;-84
2020/12/16 09:42:56;;;;;;;17.47;10.43;;;7.80;94.00;;;;;;5061639;28;20434;-84
2020/12/16 09:45:22;;;;;;;19.08;11.70;;;7.90;94.10;;;;;;5060287;28;20024;-83
2020/12/16 09:47:51;;;;;;;17.07;11.17;;;7.90;94.30;;;;;;5061309;28;20029;-84
2020/12/16 09:50:26;;;;;;;16.57;10.60;;;7.90;94.20;;;;;;5061166;28;20516;-84
2020/12/16 09:52:57;;;;;;;16.43;10.43;;;7.90;94.10;;;;;;5060116;28;20029;-84
2020/12/16 09:55:23;;;;;;;15.80;9.60;;;7.90;94.30;;;;;;5059109;28;20048;-84
2020/12/16 09:58:06;;;;;;;17.10;10.13;;;8.00;94.30;;;;;;5059307;28;20028;-84
2020/12/16 10:00:34;;;;;;;15.40;9.33;;;8.00;94.30;;;;;;5060289;28;20517;-84
2020/12/16 10:03:02;;;;;;;15.93;9.80;;;8.00;94.40;;;;;;5059129;28;20025;-84
2020/12/16 10:05:28;;;;;;;15.37;10.00;;;8.10;94.40;;;;;;5057954;28;20105;-83
2020/12/16 10:07:55;;;;;;;18.53;9.57;;;8.10;94.60;;;;;;5057973;28;20021;-84
2020/12/16 10:10:21;;;;;;;13.23;9.33;;;8.10;94.60;;;;;;5056744;28;20040;-84
2020/12/16 10:12:47;;;;;;;13.07;7.97;;;8.10;94.60;;;;;;5057900;28;20033;-84
2020/12/16 10:15:13;;;;;;;13.67;8.20;;;8.20;94.80;;;;;;5057392;28;20033;-84
2020/12/16 10:17:39;;;;;;;14.57;8.47;;;8.20;94.70;;;;;;5059066;28;20105;-84
2020/12/16 10:20:05;;;;;;;16.03;9.30;;;8.20;94.60;;;;;;5054959;28;20021;-83
2020/12/16 10:22:31;;;;;;;13.87;8.70;;;8.20;94.70;;;;;;5055037;28;20025;-83
2020/12/16 10:24:57;;;;;;;13.77;9.17;;;8.30;94.70;;;;;;5052922;28;20029;-83
2020/12/16 10:27:23;;;;;;;13.03;8.00;;;8.30;94.70;;;;;;5053927;28;20036;-84
2020/12/16 10:29:48;;;;;;;13.73;7.50;;;8.30;94.70;;;;;;5054216;28;20021;-83
2020/12/16 10:32:15;;;;;;;12.00;7.33;;;8.40;94.60;;;;;;5053126;28;20060;-83
2020/12/16 10:34:41;;;;;;;13.47;7.47;;;8.30;94.60;;;;;;5054403;28;20044;-83
2020/12/16 10:37:07;;;;;;;15.27;8.13;;;8.40;94.70;;;;;;5054058;28;20481;-83
2020/12/16 10:39:32;;;;;;;10.33;6.80;;;8.40;94.40;;;;;;5054029;28;20028;-83
2020/12/16 10:41:58;;;;;;;11.00;6.40;;;8.50;94.40;;;;;;5052701;28;20021;-83
2020/12/16 10:44:25;;;;;;;11.80;7.27;;;8.50;94.40;;;;;;5053995;28;20100;-83
2020/12/16 10:46:54;;;;;;;13.70;7.23;;;8.50;94.40;;;;;;5052802;28;20029;-83
2020/12/16 10:49:24;;;;;;;11.38;6.82;;;8.60;94.30;;;;;;5054313;28;20028;-83
2020/12/16 10:51:51;;;;;;;11.10;7.53;;;8.60;94.10;;;;;;5053667;28;20029;-83
2020/12/16 10:54:17;;;;;;;11.77;7.43;;;8.70;94.20;;;;;;5053257;28;20447;-84
2020/12/16 10:56:43;;;;;;;15.87;8.80;;;8.60;94.00;;;;;;5054414;28;20025;-83
2020/12/16 10:59:08;;;;;;;13.50;7.93;;;8.70;94.20;;;;;;5051799;28;20029;-84
2020/12/16 11:01:38;;;;;;;12.43;8.47;;;8.70;94.20;;;;;;5054066;28;20029;-83
2020/12/16 11:04:09;;;;;;;12.23;7.85;;;8.70;94.40;;;;;;5053839;28;20021;-83
2020/12/16 11:06:36;;;;;;;10.33;7.33;;;8.70;94.40;;;;;;5053820;28;20058;-84
2020/12/16 11:09:03;;;;;;;12.40;7.83;;;8.70;94.20;;;;;;5052419;28;20112;-84
2020/12/16 11:11:28;;;;;;;12.27;7.83;;;8.70;94.50;;;;;;5053904;28;20550;-83
2020/12/16 11:13:54;;;;;;;11.53;7.20;;;8.80;94.40;;;;;;5053651;28;20115;-83
2020/12/16 11:16:27;;;;;;;10.93;7.27;;;8.80;94.30;;;;;;5052736;28;20025;-84
2020/12/16 11:18:53;;;;;;;33.43;14.00;;;8.90;94.30;;;;;;5051508;28;20025;-83
2020/12/16 11:21:18;;;;;;;11.53;7.50;;;8.90;94.50;;;;;;5053562;28;20363;-83
2020/12/16 11:23:44;;;;;;;10.33;7.13;;;8.90;94.40;;;;;;5054051;28;20024;-83
2020/12/16 11:26:09;;;;;;;10.80;7.13;;;8.90;94.40;;;;;;5052315;28;20362;-83
2020/12/16 11:28:35;;;;;;;10.63;6.93;;;9.00;94.40;;;;;;5054273;28;20095;-83
2020/12/16 11:31:01;;;;;;;10.10;6.70;;;9.00;94.30;;;;;;5053379;28;20082;-83
2020/12/16 11:33:28;;;;;;;11.10;7.00;;;9.00;94.30;;;;;;5053533;28;20029;-83
2020/12/16 11:35:54;;;;;;;9.87;7.23;;;9.10;94.20;;;;;;5052481;28;20025;-83
2020/12/16 11:38:20;;;;;;;9.67;7.00;;;9.10;94.10;;;;;;5054071;28;20025;-83
2020/12/16 11:40:46;;;;;;;10.07;6.40;;;9.10;94.20;;;;;;5052284;28;20021;-83
2020/12/16 11:43:12;;;;;;;8.93;6.60;;;9.10;94.00;;;;;;5054239;28;20405;-83
2020/12/16 11:45:37;;;;;;;9.97;6.80;;;9.20;94.10;;;;;;5054235;28;20143;-83
2020/12/16 11:48:03;;;;;;;9.80;6.70;;;9.20;94.50;;;;;;5054807;28;20033;-83
2020/12/16 11:50:29;;;;;;;9.80;6.50;;;9.20;94.10;;;;;;5052975;28;20021;-84
2020/12/16 11:52:54;;;;;;;9.80;6.67;;;9.20;94.00;;;;;;5053365;28;20025;-83
2020/12/16 11:55:20;;;;;;;10.30;6.67;;;9.20;94.00;;;;;;5052163;28;20025;-83
2020/12/16 11:57:46;;;;;;;9.80;6.47;;;9.30;93.90;;;;;;5053852;28;20025;-83
2020/12/16 12:00:11;;;;;;;9.53;6.53;;;9.30;93.90;;;;;;5052304;28;20381;-83
2020/12/16 12:02:37;;;;;;;7.87;5.93;;;9.30;94.00;;;;;;5053102;28;20107;-83
2020/12/16 12:05:03;;;;;;;8.50;6.27;;;9.30;94.00;;;;;;5053426;28;20084;-83
2020/12/16 12:07:29;;;;;;;8.70;6.03;;;9.30;94.00;;;;;;5053249;28;20029;-83
2020/12/16 12:09:54;;;;;;;9.63;6.40;;;9.30;94.00;;;;;;5052968;28;20151;-83
2020/12/16 12:12:20;;;;;;;9.50;6.07;;;9.30;94.00;;;;;;5052249;28;20035;-83
2020/12/16 12:14:46;;;;;;;10.27;6.17;;;9.40;93.80;;;;;;5051996;28;20124;-84
2020/12/16 12:17:11;;;;;;;8.17;6.10;;;9.30;93.80;;;;;;5053048;28;20033;-84
2020/12/16 12:19:40;;;;;;;10.27;6.60;;;9.40;93.90;;;;;;5050878;28;20055;-84
2020/12/16 12:22:07;;;;;;;9.73;6.57;;;9.40;93.80;;;;;;5052883;28;21010;-84
2020/12/16 12:24:33;;;;;;;9.73;6.67;;;9.40;93.90;;;;;;5051369;28;20116;-84
2020/12/16 12:26:59;;;;;;;10.50;7.10;;;9.40;93.80;;;;;;5051250;28;20458;-84
2020/12/16 12:29:24;;;;;;;11.07;6.60;;;9.50;93.60;;;;;;5050940;28;20069;-84
2020/12/16 12:31:50;;;;;;;8.63;6.40;;;9.50;93.60;;;;;;5056167;28;20025;-85
2020/12/16 12:34:15;;;;;;;9.53;6.17;;;9.40;93.70;;;;;;5056321;28;20028;-84
2020/12/16 12:36:41;;;;;;;9.03;6.47;;;9.50;93.80;;;;;;5056271;28;20600;-84
2020/12/16 12:39:07;;;;;;;11.70;6.70;;;9.50;93.80;;;;;;5055509;28;20045;-85
2020/12/16 12:41:33;;;;;;;10.60;6.60;;;9.50;93.90;;;;;;5054092;28;20022;-84
2020/12/16 12:43:58;;;;;;;11.37;6.60;;;9.50;93.90;;;;;;5056433;28;20086;-84
2020/12/16 12:46:24;;;;;;;9.47;6.07;;;9.50;94.00;;;;;;5055877;28;20032;-84
2020/12/16 12:48:50;;;;;;;8.97;5.83;;;9.60;94.00;;;;;;5054466;28;20036;-85